RESULTATS »

INSCRITS PRESENTATS ACABEN RETIRATS DESQUALIFICATS DIST. TRAM 1 DIST. TRAM 2 DIST. TRAM 3 TEMP. EXT TEMP. AIGUA
0 0 0 0 750 20 5 0 0

CLASSIFICACIÓ

MASCULÍ FEMENÍ CATEGORIES CLUBS (MASCULINA) CLUBS (FEMENINA) INDIVIDUALS GRUPS D'EDAT

LLOCDORSALNOMCLUBCAT.T.META| P.Tram 1 || P.Tram 2 |Km/hTEMPS| P.Tram 3 |PARC_1PARC_2
1 1843ESTER FERRER RIERAC.N. VIC-ETBABF01:05:5211900:12:525600:35:3533.7200:48:275500:17:250:00:000:00:00
2 1810LAURA GOMEZ RAMONC.N. SABADELLJNF01:07:418600:12:147200:36:1533.1000:48:2916400:19:120:00:000:00:00
3 3518ANNA FLAQUER PORTITEAM CALELLA TRIATHLONJNF01:08:383100:10:4317400:40:0729.9100:50:507100:17:480:00:000:00:00
4 3516NURIA PEIX TARRESC.N. VIC-ETBSUB23F01:10:054100:10:5711400:37:4831.7500:48:4529900:21:200:00:000:00:00
5 3503GLÒRIA ESPINAR MAQUEDACLUB WATERPOLO FIGUERESABF01:15:044900:11:1626500:42:4228.1000:53:5829200:21:060:00:000:00:00
6 1874ANNA BARRERO FRANQUETC.N. REUS PLOMSABF01:16:5925500:15:0421600:41:0529.2100:56:0927600:20:500:00:000:00:00
7 4040LAIA CONESA I MURCLUB TRIATLO VALLIRANACDF01:17:2012000:12:5531700:44:1527.1200:57:1022800:20:100:00:000:00:00
8 1929NEREIDA PUJOL ARIASCLUB ESPORTIU CUBE MANRESABF01:18:0328100:15:2420000:40:4929.4000:56:1331900:21:500:00:000:00:00
9 14GISELA SOLEY SALAMEROCLUB TRIATLO SABADELLABF01:18:06000:00:00000:00:000.0000:00:00000:00:000:00:000:00:00
10 85SUSAGNA RODRÍGUEZ RUANOCLUB TRIATLO L´EIX DE NAVABF01:18:1517700:13:5027200:42:5327.9800:56:4331100:21:320:00:000:00:00
11 1837LAURA MAQUEDA MARCOSC.N. PRAT-TRIATLOABF01:18:4014100:13:0727800:42:5827.9300:56:0534900:22:350:00:000:00:00
12 4011MAITE ROSADO RODRIGUEZSBRABF01:18:4140500:17:5221200:41:0129.2600:58:5320400:19:480:00:000:00:00
13 1817CLAUDIA URETA SANCHEZC.N. SABADELLJNF01:19:266800:11:4331800:44:1827.0900:56:0137200:23:250:00:000:00:00
14 91EVA TOMAS SANCHEZC.N. MATAROABF01:19:3520900:14:2426600:42:4428.0800:57:0834300:22:270:00:000:00:00
15 1956ARANTXA LOPEZ GRAUCLUB ESPAI ESPORT WELLNESABF01:19:3911800:12:5228500:43:1127.7900:56:0337600:23:360:00:000:00:00
16 1869ANGELES RODRIGUEZ RODRIGUCLUB TRIATLO BLANESABF01:20:0622000:14:3732100:44:2926.9800:59:0628400:21:000:00:000:00:00
17 4064AROA GERTRUDIX PRIETO C.N. REUS PLOMSJNF01:20:1012800:12:5930900:43:5027.3800:56:4937000:23:210:00:000:00:00
18 4045IRENE RODRIGUEZ GUELLCLUB TRIATLO BLANESABF01:20:2736900:16:5130800:43:4727.4101:00:3820500:19:490:00:000:00:00
19 123CATARINA SOUSACLUB TRIATLO SABADELLABF01:20:4510100:12:3233100:44:5926.6800:57:3136500:23:140:00:000:00:00
20 4007CLARA HERNANDEZ CORTÉSSBRABF01:21:0937400:16:5430200:43:3827.5001:00:3226400:20:370:00:000:00:00
21 3578LAIA ALSINA VIUCLUB TRIATLO BLANESJNF01:21:1430100:15:4130400:43:4127.4700:59:2232000:21:520:00:000:00:00
22 55SONIA RODRIGUEZ FRAMISCLUB TRIATLO BLANESABF01:21:4234900:16:3028300:43:0827.8200:59:3833000:22:040:00:000:00:00
23 3595LAIA DEL RIO PUIGJOVENTUT ATLETICA MONTCADABF01:22:3720600:14:2235000:46:0226.0701:00:2433400:22:130:00:000:00:00
24 3553LAIA MARTIN MAGDALENAGAVA TRIATLOCDF01:22:5222400:14:4234100:45:3526.3301:00:1735000:22:350:00:000:00:00
25 4006AUREA MARTÍNEZ COLOMINESSBRSUB23F01:23:1913600:13:0335800:46:4025.7100:59:4337500:23:360:00:000:00:00
26 1831LAIA SALVADOR LLADOC.N. MATAROV1F01:23:2431200:15:5233400:45:0526.6201:00:5734400:22:270:00:000:00:00
27 5127LAIA RIERA GONZALEZLLICENCIA DE DIAABF01:23:3726400:15:0934400:45:4626.2201:00:5535100:22:420:00:000:00:00
28 4046JUDIT BALTRONS OLIVERASCLUB TRIATLO BLANESABF01:23:4429600:15:3832300:44:3526.9201:00:1337300:23:310:00:000:00:00
29 3521MONICA CRISOL SALASC.N. PRAT-TRIATLOABF01:24:1930700:15:4536500:47:3525.2201:03:2028200:20:590:00:000:00:00
30 4012MARIA JORDÀ ESCODASBRV1F01:24:2029400:15:3635300:46:2025.9001:01:5634000:22:240:00:000:00:00
31 3555LILA GERSCHOVSKY RODRIGUEC.N. SABADELLJNF01:26:187100:11:5136100:46:5025.6200:58:4141100:27:370:00:000:00:00
32 20MONSERRAT CLAVERO SANCHEZC.N. REUS PLOMSV2F01:26:3838400:17:0935500:46:2125.8901:03:3036000:23:080:00:000:00:00
33 3596MARIA NAVARRETE GARCIAJOVENTUT ATLETICA MONTCADABF01:26:4232100:15:5434000:45:3526.3301:01:2939900:25:130:00:000:00:00
34 3584EVA SANCHEZ TABIOSCLUB TRIATLO L´EIX DE NAVABF01:27:0534500:16:2838800:49:2524.2801:05:5329400:21:120:00:000:00:00
35 4074GEMMA ABAD MARTORELLBIK3FISHABF01:27:1340800:18:0435900:46:4225.7001:04:4634200:22:270:00:000:00:00
36 1996NOEMI APARICIO CABANILLASC.N. SABADELLABF01:28:1034300:16:2638500:49:1324.3801:05:3934600:22:310:00:000:00:00
37 5118LAURA FLAQUER PORTILLICENCIA DE DIASUB23F01:28:289600:12:2837800:48:4824.5901:01:1641000:27:120:00:000:00:00
38 1851MARTA SANCHEZ SALINASCLUB TRIATLO L´EIX DE NAVV1F01:29:5941300:18:1437200:48:0924.9201:06:2337700:23:360:00:000:00:00
39 47LAURA RODRIGUEZ BOTIASCERDANYOLA CHABF01:30:1941400:18:1637000:48:0224.9801:06:1838500:24:010:00:000:00:00
40 3594MONTSERRAT PEREZ MARTINEZJOVENTUT ATLETICA MONTCADABF01:31:3243200:20:1337700:48:3424.7101:08:4735300:22:450:00:000:00:00
41 1857RUTH TOMAS CAMPOYCLUB TRIATLO SABADELLABF01:32:1323300:14:5141000:53:1122.5601:08:0238900:24:110:00:000:00:00
42 3510MIRIAM OMS ARIASCLUB TRIATLO SABADELLV1F01:32:4441200:18:1038700:49:1924.3301:07:2940000:25:150:00:000:00:00
43 6023VIKY ROURA IGLESIASLLICENCIA DE DIAV1F01:33:0443000:20:0931100:43:5727.3001:04:0641700:28:580:00:000:00:00
44 16ROSA MARIA MOR ABATCLUB CASTELLFOLLIT TRIATLV2F01:35:2244100:21:0839100:50:0024.0001:11:0839000:24:140:00:000:00:00
45 79MELÀNIA ROGERS FREIXASTEAM CALELLA TRIATHLONABF01:35:3041100:18:1038900:49:3424.2101:07:4441300:27:460:00:000:00:00
46 1894CRISTINA GARCIA BARCIAC.N. SABADELLJNF01:39:1919000:14:0541200:55:4721.5101:09:5241900:29:270:00:000:00:00
47 4036JUDITH PÉREZ SANSALONIC.E. WHERE IS THE LIMIT ?ABF01:40:3442400:19:5040400:52:0423.0501:11:5441600:28:400:00:000:00:00
48 3538CYNTHIA MARTINEZ REDONDOC.N. SABADELLCDF01:41:4714900:13:2341500:56:5621.0801:10:1942100:31:280:00:000:00:00
49 5117JUANA TORRES BOSCHLLICENCIA DE DIAABF01:47:1344800:23:4241700:57:3920.8201:21:2140400:25:520:00:000:00:00
50 3551CLARA DE RAMON PASSARELLIGAVA TRIATLOCDF01:48:5141900:18:4041800:59:3820.1201:18:1842000:30:330:00:000:00:00
51 3549CAMILA CASALMIGLIA TORRESGAVA TRIATLOCDF01:52:2644700:23:3941901:00:4919.7301:24:2841400:27:580:00:000:00:00






FEDERACIÓ CATALANA DE TRIATLÓ
SEU CENTRAL I CORRESPONDÈNCIA: Rambla Guipúscoa 23-25 2on-D · 08018 Barcelona · Tel / Fax : 93 307 93 35
ATENCIÓ AL PÚBLIC: Passeig Joan de Borbó, 93 (Club Natació Barcelona) · 08039 Barcelona · Tel / Fax : 93 307 93 32